Terminal Aerodrome Forecast
Issued by NWS

Home | Current Version | Previous Version | Text Only | Print | Product List | Glossary On
Versions: 1 2 3 4 5 6 7 8 9 10 11 12 13 14 15 16 17 18 19 20 21 22 23 24 25 26 27 28
000
FTUS46 KSEW 151726
TAFBFI
TAF
KBFI 151726Z 1518/1618 VRB03KT P6SM BKN014
      TEMPO 1518/1520 SCT016
     FM152000 32006KT P6SM FEW020 SCT040
     FM160400 VRB03KT P6SM SKC
     FM161100 23005KT P6SM FEW011 BKN200=

USA.gov is the U.S. government's official web portal to all federal, state and local government web resources and services.